createdAt,value
2022-10-01T00:00:13.687Z,83.44
2022-10-01T00:02:40.400Z,84.00
2022-10-01T00:05:09.101Z,85.01
2022-10-01T00:07:41.218Z,85.18
2022-10-01T00:10:09.066Z,85.27
2022-10-01T00:12:35.673Z,84.97
2022-10-01T00:15:05.884Z,84.58
2022-10-01T00:17:34.059Z,84.43
2022-10-01T00:20:01.065Z,85.00
2022-10-01T00:22:27.736Z,84.01
2022-10-01T00:24:57.835Z,83.86
2022-10-01T00:27:24.678Z,83.51
2022-10-01T00:29:51.590Z,83.52
2022-10-01T00:32:18.463Z,82.75
2022-10-01T00:34:45.348Z,83.41
2022-10-01T00:37:12.387Z,84.56
2022-10-01T00:39:39.092Z,84.40
2022-10-01T00:42:21.554Z,84.77
2022-10-01T00:44:49.288Z,84.52
2022-10-01T00:47:27.489Z,84.77
2022-10-01T00:50:07.365Z,82.32
2022-10-01T00:52:41.957Z,83.02
2022-10-01T00:55:26.761Z,82.52
2022-10-01T00:57:55.099Z,82.50
2022-10-01T01:00:22.428Z,83.25
2022-10-01T01:02:49.856Z,83.63
2022-10-01T01:05:17.502Z,83.84
2022-10-01T01:07:49.841Z,84.10
2022-10-01T01:10:26.534Z,84.51
2022-10-01T01:13:23.910Z,85.01
2022-10-01T01:16:08.290Z,85.38
2022-10-01T01:18:43.402Z,85.53
2022-10-01T01:21:21.161Z,85.45
2022-10-01T01:24:37.021Z,86.24
2022-10-01T01:27:35.846Z,86.46
2022-10-01T01:30:04.388Z,86.80
2022-10-01T01:32:51.041Z,86.71
2022-10-01T01:35:33.939Z,86.68
2022-10-01T01:38:14.597Z,86.83
2022-10-01T01:40:46.549Z,86.92
2022-10-01T01:43:27.196Z,86.61
2022-10-01T01:45:55.148Z,86.62
2022-10-01T01:48:26.589Z,86.87
2022-10-01T01:51:18.908Z,87.38
2022-10-01T01:53:47.819Z,87.44
2022-10-01T01:56:17.305Z,87.32
2022-10-01T01:58:45.791Z,87.44
2022-10-01T02:01:37.705Z,87.36
2022-10-01T02:04:19.933Z,87.41
2022-10-01T02:07:07.956Z,87.09
2022-10-01T02:10:06.298Z,87.35
2022-10-01T02:13:03.930Z,87.68
2022-10-01T02:16:01.273Z,87.75
2022-10-01T02:19:14.090Z,87.54
2022-10-01T02:22:05.135Z,87.50
2022-10-01T02:24:45.155Z,87.42
2022-10-01T02:27:26.922Z,87.39
2022-10-01T02:29:57.567Z,87.45
2022-10-01T02:32:27.570Z,87.12
2022-10-01T02:34:55.075Z,87.35
2022-10-01T02:37:26.343Z,87.30
2022-10-01T02:39:56.304Z,87.85
2022-10-01T02:42:29.595Z,87.71
2022-10-01T02:45:02.474Z,87.81
2022-10-01T02:47:47.832Z,87.51
2022-10-01T02:50:15.832Z,87.58
2022-10-01T02:52:55.957Z,87.65
2022-10-01T02:55:30.818Z,87.74
2022-10-01T02:57:58.100Z,87.49
2022-10-01T03:00:27.008Z,87.17
2022-10-01T03:02:54.341Z,86.88
2022-10-01T03:05:21.989Z,86.70
2022-10-01T03:07:49.031Z,87.18
2022-10-01T03:10:16.414Z,86.90
2022-10-01T03:12:46.733Z,86.90
2022-10-01T03:15:19.286Z,86.88
2022-10-01T03:17:50.525Z,86.53
2022-10-01T03:20:17.139Z,87.09
2022-10-01T03:22:48.067Z,87.51
2022-10-01T03:25:16.116Z,87.70
2022-10-01T03:27:43.308Z,87.77
2022-10-01T03:30:11.060Z,87.13
2022-10-01T03:32:37.939Z,87.01
2022-10-01T03:35:05.433Z,87.49
2022-10-01T03:37:32.192Z,87.59
2022-10-01T03:40:01.325Z,87.44
2022-10-01T03:42:28.140Z,87.58
2022-10-01T03:44:54.989Z,87.31
2022-10-01T03:47:24.309Z,87.55
2022-10-01T03:49:50.988Z,87.06
2022-10-01T03:52:17.884Z,87.36
2022-10-01T03:54:44.676Z,88.04
2022-10-01T03:57:11.391Z,87.53
2022-10-01T03:59:38.088Z,87.35
2022-10-01T04:02:04.861Z,87.59
2022-10-01T04:04:31.657Z,87.02
2022-10-01T04:06:58.341Z,87.23
2022-10-01T04:09:25.099Z,86.87
2022-10-01T04:11:52.714Z,87.03
2022-10-01T04:14:19.436Z,87.20
2022-10-01T04:16:46.043Z,87.10
2022-10-01T04:19:12.760Z,86.85
2022-10-01T04:21:39.532Z,86.83
2022-10-01T04:24:06.501Z,86.96
2022-10-01T04:26:33.143Z,87.37
2022-10-01T04:28:59.785Z,87.70
2022-10-01T04:31:26.710Z,87.80
2022-10-01T04:33:58.098Z,87.94
2022-10-01T04:36:25.820Z,88.17
2022-10-01T04:39:02.613Z,87.57
2022-10-01T04:41:31.619Z,87.95
2022-10-01T04:44:00.182Z,87.64
2022-10-01T04:46:30.284Z,87.65
2022-10-01T04:48:59.419Z,87.28
2022-10-01T04:51:26.177Z,87.42
2022-10-01T04:53:52.941Z,87.23
2022-10-01T04:56:19.663Z,86.84
2022-10-01T04:58:46.578Z,87.27
2022-10-01T05:01:13.258Z,86.91
2022-10-01T05:03:42.282Z,87.09
2022-10-01T05:06:08.896Z,87.09
2022-10-01T05:08:38.024Z,87.31
2022-10-01T05:11:05.051Z,87.65
2022-10-01T05:13:32.037Z,88.09
2022-10-01T05:16:03.669Z,88.18
2022-10-01T05:18:37.311Z,88.32
2022-10-01T05:21:08.478Z,88.26
2022-10-01T05:23:37.354Z,88.25
2022-10-01T05:26:05.714Z,87.92
2022-10-01T05:28:33.201Z,88.23
2022-10-01T05:31:05.773Z,88.66
2022-10-01T05:33:36.175Z,88.49
2022-10-01T05:36:06.747Z,88.06
2022-10-01T05:38:38.237Z,88.45
2022-10-01T05:41:05.863Z,88.04
2022-10-01T05:43:32.699Z,88.07
2022-10-01T05:46:05.518Z,88.04
2022-10-01T05:48:34.580Z,88.21
2022-10-01T05:51:03.092Z,88.26
2022-10-01T05:53:29.773Z,88.00
2022-10-01T05:55:56.457Z,88.28
2022-10-01T05:58:23.097Z,87.92
2022-10-01T06:00:52.175Z,87.56
2022-10-01T06:03:18.857Z,87.63
2022-10-01T06:05:45.798Z,87.56
2022-10-01T06:08:12.952Z,87.78
2022-10-01T06:10:41.872Z,87.63
2022-10-01T06:13:08.489Z,87.75
2022-10-01T06:15:38.732Z,87.52
2022-10-01T06:18:08.417Z,87.77
2022-10-01T06:20:35.885Z,87.97
2022-10-01T06:23:05.915Z,87.85
2022-10-01T06:25:35.042Z,88.50
2022-10-01T06:28:09.493Z,88.72
2022-10-01T06:30:39.243Z,88.51
2022-10-01T06:33:09.895Z,88.55
2022-10-01T06:35:42.816Z,88.47
2022-10-01T06:38:11.446Z,88.32
2022-10-01T06:40:39.329Z,88.06
2022-10-01T06:43:08.047Z,87.91
2022-10-01T06:45:43.431Z,87.80
2022-10-01T06:48:15.022Z,87.69
2022-10-01T06:50:44.290Z,87.67
2022-10-01T06:53:12.960Z,87.58
2022-10-01T06:55:42.262Z,87.67
2022-10-01T06:58:18.545Z,87.83
2022-10-01T07:00:50.146Z,88.07
2022-10-01T07:03:21.540Z,88.10
2022-10-01T07:05:50.054Z,88.02
2022-10-01T07:08:17.872Z,87.46
2022-10-01T07:10:45.623Z,87.34
2022-10-01T07:13:20.912Z,87.00
2022-10-01T07:15:47.928Z,87.46
2022-10-01T07:18:16.141Z,86.72
2022-10-01T07:20:48.281Z,86.62
2022-10-01T07:23:16.344Z,86.48
2022-10-01T07:25:44.253Z,86.67
2022-10-01T07:28:18.581Z,87.20
2022-10-01T07:30:57.673Z,86.72
2022-10-01T07:33:27.410Z,86.97
2022-10-01T07:35:54.292Z,87.70
2022-10-01T07:38:21.252Z,88.21
2022-10-01T07:40:54.825Z,88.32
2022-10-01T07:43:22.861Z,87.41
2022-10-01T07:45:52.419Z,87.49
2022-10-01T07:48:19.375Z,87.30
2022-10-01T07:50:46.162Z,88.72
2022-10-01T07:53:13.768Z,88.96
2022-10-01T07:55:40.304Z,88.95
2022-10-01T07:58:08.033Z,89.76
2022-10-01T08:00:35.344Z,89.38
2022-10-01T08:03:02.078Z,89.63
2022-10-01T08:05:33.426Z,90.25
2022-10-01T08:08:03.439Z,90.74
2022-10-01T08:10:33.342Z,91.01
2022-10-01T08:13:14.128Z,91.20
2022-10-01T08:15:43.466Z,91.18
2022-10-01T08:18:11.297Z,91.74
2022-10-01T08:20:41.023Z,92.01
2022-10-01T08:23:11.715Z,92.30
2022-10-01T08:25:39.740Z,92.52
2022-10-01T08:28:07.772Z,92.56
2022-10-01T08:30:37.779Z,92.65
2022-10-01T08:33:04.452Z,92.70
2022-10-01T08:35:33.316Z,93.17
2022-10-01T08:38:06.762Z,93.38
2022-10-01T08:40:38.581Z,93.76
2022-10-01T08:43:38.685Z,93.04
2022-10-01T08:46:19.263Z,93.29
2022-10-01T08:48:58.651Z,93.31
2022-10-01T08:51:40.320Z,93.73
2022-10-01T08:54:41.178Z,93.53
2022-10-01T08:57:21.085Z,93.34
2022-10-01T08:59:59.407Z,93.66
2022-10-01T09:02:31.713Z,93.33
2022-10-01T09:05:06.369Z,93.83
2022-10-01T09:07:57.166Z,93.79
2022-10-01T09:11:06.529Z,93.85
2022-10-01T09:14:13.944Z,94.20
2022-10-01T09:17:02.643Z,93.93
2022-10-01T09:20:21.524Z,94.38
2022-10-01T09:23:16.012Z,94.42
2022-10-01T09:25:46.232Z,94.21
2022-10-01T09:28:29.366Z,93.88
2022-10-01T09:31:18.070Z,93.34
2022-10-01T09:33:56.017Z,93.73
2022-10-01T09:36:44.207Z,93.58
2022-10-01T09:39:10.684Z,93.53
2022-10-01T09:41:37.558Z,94.15
2022-10-01T09:44:05.163Z,93.61
2022-10-01T09:46:32.311Z,93.69
2022-10-01T09:49:13.863Z,93.55
2022-10-01T09:51:49.968Z,93.76
2022-10-01T09:54:43.167Z,93.76
2022-10-01T09:57:18.176Z,93.39
2022-10-01T09:59:57.180Z,93.52
2022-10-01T10:02:34.109Z,94.21
2022-10-01T10:05:09.983Z,93.84
2022-10-01T10:07:37.836Z,94.45
2022-10-01T10:10:36.914Z,94.24
2022-10-01T10:13:10.859Z,93.50
2022-10-01T10:15:59.110Z,93.73
2022-10-01T10:18:35.904Z,93.86
2022-10-01T10:21:15.074Z,93.93
2022-10-01T10:24:00.595Z,93.51
2022-10-01T10:26:33.843Z,93.34
2022-10-01T10:29:03.988Z,92.64
2022-10-01T10:31:42.842Z,92.34
2022-10-01T10:34:27.980Z,90.90
2022-10-01T10:37:11.974Z,91.50
2022-10-01T10:39:43.164Z,92.33
2022-10-01T10:42:16.287Z,91.95
2022-10-01T10:44:49.794Z,91.46
2022-10-01T10:47:20.618Z,91.36
2022-10-01T10:49:56.764Z,90.21
2022-10-01T10:52:37.140Z,91.73
2022-10-01T10:55:31.176Z,93.35
2022-10-01T10:58:15.368Z,92.39
2022-10-01T11:00:51.210Z,90.59
2022-10-01T11:03:24.437Z,92.02
2022-10-01T11:05:52.522Z,92.04
2022-10-01T11:08:26.027Z,92.71
2022-10-01T11:11:16.182Z,92.51
2022-10-01T11:14:21.396Z,90.55
2022-10-01T11:17:18.156Z,91.63
2022-10-01T11:20:15.464Z,89.69
2022-10-01T11:23:15.797Z,91.67
2022-10-01T11:26:02.116Z,90.83
2022-10-01T11:28:49.852Z,90.71
2022-10-01T11:32:03.082Z,91.14
2022-10-01T11:35:11.014Z,90.73
2022-10-01T11:38:05.112Z,88.82
2022-10-01T11:40:46.404Z,90.45
2022-10-01T11:43:28.284Z,89.27
2022-10-01T11:46:17.615Z,90.44
2022-10-01T11:48:57.322Z,90.08
2022-10-01T11:51:36.848Z,90.32
2022-10-01T11:54:13.346Z,89.44
2022-10-01T11:57:08.846Z,89.88
2022-10-01T12:00:04.323Z,89.52
2022-10-01T12:03:02.579Z,91.51
2022-10-01T12:05:32.974Z,89.98
2022-10-01T12:08:27.805Z,89.73
2022-10-01T12:11:20.993Z,91.87
2022-10-01T12:14:09.857Z,90.41
2022-10-01T12:16:52.028Z,89.70
2022-10-01T12:19:29.848Z,90.31
2022-10-01T12:22:15.263Z,92.53
2022-10-01T12:24:45.995Z,92.08
2022-10-01T12:27:34.686Z,90.92
2022-10-01T12:30:25.036Z,89.82
2022-10-01T12:33:12.907Z,91.75
2022-10-01T12:36:15.478Z,90.22
2022-10-01T12:39:08.667Z,91.95
2022-10-01T12:41:51.349Z,90.47
2022-10-01T12:44:56.561Z,91.72
2022-10-01T12:47:50.720Z,91.15
2022-10-01T12:50:47.553Z,91.64
2022-10-01T12:53:41.153Z,90.89
2022-10-01T12:56:30.865Z,92.05
2022-10-01T12:59:27.584Z,93.19
2022-10-01T13:02:39.501Z,91.00
2022-10-01T13:05:40.071Z,91.93
2022-10-01T13:08:25.645Z,90.59
2022-10-01T13:11:58.654Z,90.91
2022-10-01T13:14:26.270Z,90.92
2022-10-01T13:17:17.681Z,90.15
2022-10-01T13:20:15.740Z,90.06
2022-10-01T13:22:53.397Z,90.80
2022-10-01T13:25:30.409Z,90.00
2022-10-01T13:28:28.416Z,90.39
2022-10-01T13:31:01.412Z,89.15
2022-10-01T13:33:32.547Z,90.14
2022-10-01T13:36:01.414Z,89.05
2022-10-01T13:38:47.698Z,89.44
2022-10-01T13:41:22.509Z,87.86
2022-10-01T13:43:59.147Z,88.36
2022-10-01T13:46:31.603Z,89.08
2022-10-01T13:49:30.656Z,87.76
2022-10-01T13:51:59.041Z,88.00
2022-10-01T13:54:47.522Z,88.31
2022-10-01T13:57:39.084Z,88.52
2022-10-01T14:00:11.658Z,88.56
2022-10-01T14:02:42.470Z,87.82
2022-10-01T14:05:25.812Z,87.33
2022-10-01T14:08:11.804Z,87.37
2022-10-01T14:11:17.054Z,87.41
2022-10-01T14:14:08.200Z,87.75
2022-10-01T14:16:45.882Z,87.78
2022-10-01T14:19:23.715Z,87.40
2022-10-01T14:22:35.964Z,88.07
2022-10-01T14:25:09.589Z,88.09
2022-10-01T14:27:41.982Z,88.14
2022-10-01T14:30:20.811Z,87.08
2022-10-01T14:33:24.839Z,88.16
2022-10-01T14:36:23.135Z,88.32
2022-10-01T14:39:22.222Z,87.33
2022-10-01T14:41:52.606Z,88.60
2022-10-01T14:44:21.091Z,88.21
2022-10-01T14:46:50.080Z,88.65
2022-10-01T14:49:28.140Z,88.39
2022-10-01T14:52:07.265Z,88.09
2022-10-01T14:55:14.549Z,87.88
2022-10-01T14:57:47.247Z,87.75
2022-10-01T15:00:22.008Z,87.59
2022-10-01T15:02:53.181Z,87.39
2022-10-01T15:05:27.912Z,86.96
2022-10-01T15:07:54.749Z,87.37
2022-10-01T15:10:27.171Z,87.11
2022-10-01T15:12:55.701Z,87.09
2022-10-01T15:15:41.317Z,87.47
2022-10-01T15:18:14.494Z,86.04
2022-10-01T15:21:15.327Z,86.77
2022-10-01T15:23:42.314Z,86.04
2022-10-01T15:26:22.596Z,85.65
2022-10-01T15:28:49.642Z,86.07
2022-10-01T15:31:17.315Z,85.53
2022-10-01T15:33:50.811Z,85.94
2022-10-01T15:36:19.113Z,86.08
2022-10-01T15:38:53.031Z,85.33
2022-10-01T15:41:33.296Z,85.59
2022-10-01T15:44:06.282Z,85.50
2022-10-01T15:46:36.660Z,85.38
2022-10-01T15:49:24.640Z,85.00
2022-10-01T15:52:22.412Z,85.35
2022-10-01T15:55:04.870Z,84.79
2022-10-01T15:57:33.590Z,85.25
2022-10-01T16:00:02.481Z,84.67
2022-10-01T16:02:33.173Z,84.71
2022-10-01T16:05:06.877Z,84.90
2022-10-01T16:07:35.347Z,85.33
2022-10-01T16:10:29.992Z,84.30
2022-10-01T16:12:56.646Z,83.81
2022-10-01T16:15:33.012Z,84.01
2022-10-01T16:18:02.423Z,84.65
2022-10-01T16:20:50.501Z,84.27
2022-10-01T16:23:49.372Z,84.69
2022-10-01T16:26:36.583Z,83.42
2022-10-01T16:29:14.700Z,83.74
2022-10-01T16:31:45.245Z,83.82
2022-10-01T16:34:18.652Z,83.94
2022-10-01T16:36:46.654Z,83.74
2022-10-01T16:39:15.337Z,84.28
2022-10-01T16:41:56.540Z,84.84
2022-10-01T16:44:39.088Z,83.62
2022-10-01T16:47:06.188Z,83.56
2022-10-01T16:49:36.015Z,83.82
2022-10-01T16:52:03.563Z,83.94
2022-10-01T16:54:30.516Z,83.21
2022-10-01T16:56:59.323Z,82.42
2022-10-01T16:59:26.253Z,82.55
2022-10-01T17:01:55.873Z,82.83
2022-10-01T17:04:23.486Z,82.63
2022-10-01T17:06:50.717Z,82.90
2022-10-01T17:09:17.596Z,82.63
2022-10-01T17:11:44.706Z,82.27
2022-10-01T17:14:18.134Z,82.70
2022-10-01T17:16:45.664Z,83.10
2022-10-01T17:19:13.304Z,82.69
2022-10-01T17:21:41.236Z,83.01
2022-10-01T17:24:10.914Z,83.45
2022-10-01T17:26:45.454Z,82.81
2022-10-01T17:29:13.184Z,82.85
2022-10-01T17:31:44.655Z,83.03
2022-10-01T17:34:11.719Z,83.47
2022-10-01T17:36:39.430Z,82.73
2022-10-01T17:39:06.170Z,82.64
2022-10-01T17:41:32.796Z,83.61
2022-10-01T17:43:59.448Z,82.88
2022-10-01T17:46:30.771Z,83.50
2022-10-01T17:48:57.403Z,83.52
2022-10-01T17:51:25.727Z,82.78
2022-10-01T17:53:54.819Z,82.59
2022-10-01T17:56:21.575Z,82.65
2022-10-01T17:58:48.337Z,82.89
2022-10-01T18:01:20.109Z,82.70
2022-10-01T18:03:47.005Z,82.55
2022-10-01T18:06:15.216Z,82.30
2022-10-01T18:08:54.787Z,82.70
2022-10-01T18:11:24.078Z,83.05
2022-10-01T18:13:51.950Z,84.64
2022-10-01T18:16:19.582Z,83.97
2022-10-01T18:21:34.035Z,81.33
2022-10-01T18:24:04.564Z,80.45
2022-10-01T18:26:32.721Z,78.18
2022-10-01T18:28:59.759Z,79.75
2022-10-01T18:31:34.535Z,80.78
2022-10-01T18:34:10.424Z,81.66
2022-10-01T18:36:55.682Z,80.57
2022-10-01T18:39:45.576Z,81.73
2022-10-01T18:42:31.404Z,82.36
2022-10-01T18:45:02.306Z,81.11
2022-10-01T18:48:10.874Z,82.42
2022-10-01T18:51:00.960Z,83.26
2022-10-01T18:54:14.265Z,83.41
2022-10-01T18:57:27.390Z,83.62
2022-10-01T19:00:23.350Z,83.56
2022-10-01T19:03:20.900Z,83.88
2022-10-01T19:06:05.878Z,83.63
2022-10-01T19:09:08.253Z,83.91
2022-10-01T19:11:51.031Z,83.54
2022-10-01T19:14:51.786Z,83.64
2022-10-01T19:17:52.821Z,83.43
2022-10-01T19:20:33.582Z,85.14
2022-10-01T19:23:46.435Z,77.76
2022-10-01T19:26:41.248Z,79.92
2022-10-01T19:29:35.388Z,79.11
2022-10-01T19:32:09.798Z,80.87
2022-10-01T19:34:49.867Z,81.91
2022-10-01T19:37:37.936Z,83.70
2022-10-01T19:40:23.608Z,81.61
2022-10-01T19:43:03.632Z,82.59
2022-10-01T19:45:46.429Z,82.86
2022-10-01T19:48:24.636Z,81.73
2022-10-01T19:51:00.056Z,81.49
2022-10-01T19:53:34.076Z,82.14
2022-10-01T19:56:02.270Z,80.95
2022-10-01T19:58:30.637Z,81.51
2022-10-01T20:01:02.586Z,81.50
2022-10-01T20:03:42.484Z,82.00
2022-10-01T20:06:38.854Z,81.91
2022-10-01T20:09:25.415Z,81.99
2022-10-01T20:12:08.397Z,82.15
2022-10-01T20:15:19.807Z,83.71
2022-10-01T20:18:04.713Z,84.12
2022-10-01T20:21:19.439Z,84.85
2022-10-01T20:24:19.885Z,84.40
2022-10-01T20:26:58.982Z,84.21
2022-10-01T20:29:52.677Z,84.00
2022-10-01T20:32:36.285Z,84.02
2022-10-01T20:35:27.926Z,84.46
2022-10-01T20:38:09.863Z,84.22
2022-10-01T20:40:55.362Z,83.90
2022-10-01T20:43:44.425Z,83.89
2022-10-01T20:46:38.037Z,83.44
2022-10-01T20:49:23.112Z,82.88
2022-10-01T20:52:06.287Z,82.98
2022-10-01T20:54:47.426Z,83.01
2022-10-01T20:57:22.751Z,83.10
2022-10-01T20:59:55.456Z,83.45
2022-10-01T21:02:43.525Z,83.18
2022-10-01T21:05:29.290Z,83.50
2022-10-01T21:08:04.473Z,84.25
2022-10-01T21:10:48.022Z,83.88
2022-10-01T21:13:29.742Z,81.96
2022-10-01T21:16:20.993Z,83.06
2022-10-01T21:19:23.231Z,80.36
2022-10-01T21:22:24.477Z,82.31
2022-10-01T21:24:57.524Z,80.29
2022-10-01T21:27:44.039Z,81.05
2022-10-01T21:30:20.132Z,82.04
2022-10-01T21:33:28.499Z,82.83
2022-10-01T21:36:04.043Z,82.92
2022-10-01T21:39:20.249Z,82.01
2022-10-01T21:42:08.615Z,82.82
2022-10-01T21:44:54.302Z,83.57
2022-10-01T21:47:41.064Z,82.87
2022-10-01T21:50:44.416Z,82.67
2022-10-01T21:53:35.633Z,82.98
2022-10-01T21:56:38.374Z,83.61
2022-10-01T21:59:31.245Z,83.24
2022-10-01T22:02:49.066Z,84.06
2022-10-01T22:05:50.207Z,83.46
2022-10-01T22:08:45.990Z,84.04
2022-10-01T22:11:27.001Z,84.21
2022-10-01T22:14:00.131Z,84.46
2022-10-01T22:16:38.157Z,84.20
2022-10-01T22:19:16.407Z,84.40
2022-10-01T22:21:47.907Z,84.65
2022-10-01T22:24:21.964Z,84.77
2022-10-01T22:27:09.380Z,85.37
2022-10-01T22:29:44.502Z,84.21
2022-10-01T22:32:17.498Z,84.29
2022-10-01T22:34:55.581Z,83.75
2022-10-01T22:37:37.425Z,83.97
2022-10-01T22:40:39.060Z,84.08
2022-10-01T22:43:13.712Z,83.90
2022-10-01T22:46:27.597Z,84.24
2022-10-01T22:49:43.152Z,84.39
2022-10-01T22:52:43.451Z,84.57
2022-10-01T22:55:44.390Z,84.69
2022-10-01T22:58:39.835Z,85.00
2022-10-01T23:01:22.887Z,85.48
2022-10-01T23:04:12.627Z,85.51
2022-10-01T23:07:19.816Z,86.05
2022-10-01T23:10:20.622Z,86.13
2022-10-01T23:13:27.491Z,86.25
2022-10-01T23:16:01.690Z,86.21
2022-10-01T23:18:49.411Z,86.67
2022-10-01T23:21:34.728Z,86.84
2022-10-01T23:24:38.252Z,86.64
2022-10-01T23:27:40.354Z,86.91
2022-10-01T23:30:15.878Z,87.30
2022-10-01T23:33:21.673Z,87.42
2022-10-01T23:36:39.394Z,87.68
2022-10-01T23:39:27.487Z,87.83
2022-10-01T23:42:03.944Z,88.17
2022-10-01T23:44:42.187Z,88.71
2022-10-01T23:47:20.993Z,88.91
2022-10-01T23:49:58.554Z,89.07
2022-10-01T23:52:52.360Z,89.03
2022-10-01T23:56:03.199Z,88.91
2022-10-01T23:58:40.554Z,88.93
